createdAt,value
2022-12-03T00:03:21.536Z,5.90
2022-12-03T00:09:46.121Z,5.80
2022-12-03T00:16:10.761Z,6.10
2022-12-03T00:22:35.157Z,6.10
2022-12-03T00:28:59.448Z,6.10
2022-12-03T00:35:23.871Z,5.90
2022-12-03T00:41:48.220Z,5.70
2022-12-03T00:48:12.619Z,6.00
2022-12-03T00:54:36.924Z,6.70
2022-12-03T01:01:01.387Z,6.80
2022-12-03T01:07:25.931Z,6.20
2022-12-03T01:13:50.587Z,6.40
2022-12-03T01:20:15.964Z,6.40
2022-12-03T01:26:33.382Z,6.40
2022-12-03T01:32:57.798Z,6.10
2022-12-03T01:39:22.225Z,6.20
2022-12-03T01:45:46.677Z,6.10
2022-12-03T01:52:11.047Z,6.60
2022-12-03T01:58:35.417Z,6.70
2022-12-03T02:04:59.685Z,6.90
2022-12-03T02:11:24.053Z,5.70
2022-12-03T02:17:48.447Z,6.70
2022-12-03T02:24:21.580Z,6.20
2022-12-03T02:30:46.175Z,6.10
2022-12-03T02:37:10.705Z,6.50
2022-12-03T02:43:35.111Z,6.40
2022-12-03T02:49:59.531Z,6.30
2022-12-03T02:56:23.932Z,5.80
2022-12-03T03:02:48.359Z,6.10
2022-12-03T03:09:12.649Z,6.10
2022-12-03T03:15:37.059Z,6.20
2022-12-03T03:22:01.472Z,5.60
2022-12-03T03:28:25.784Z,5.40
2022-12-03T03:34:50.187Z,5.40
2022-12-03T03:41:13.578Z,6.10
2022-12-03T03:47:28.194Z,6.00
2022-12-03T03:53:52.920Z,5.70
2022-12-03T04:00:17.240Z,5.40
2022-12-03T04:06:41.630Z,5.50
2022-12-03T04:13:17.992Z,5.40
2022-12-03T04:19:42.334Z,5.40
2022-12-03T04:26:05.117Z,5.80
2022-12-03T04:32:28.023Z,5.60
2022-12-03T04:38:52.377Z,4.90
2022-12-03T04:45:16.689Z,5.70
2022-12-03T04:51:41.022Z,5.70
2022-12-03T04:58:05.429Z,5.10
2022-12-03T05:04:29.707Z,4.90
2022-12-03T05:10:37.092Z,5.00
2022-12-03T05:16:44.589Z,4.90
2022-12-03T05:23:09.117Z,4.20
2022-12-03T05:29:33.492Z,5.00
2022-12-03T05:35:57.841Z,4.50
2022-12-03T05:42:21.266Z,4.10
2022-12-03T05:48:45.820Z,4.30
2022-12-03T05:55:10.137Z,4.40
2022-12-03T06:01:34.428Z,3.90
2022-12-03T06:07:58.912Z,4.30
2022-12-03T06:14:23.464Z,4.60
2022-12-03T06:20:48.070Z,4.30
2022-12-03T06:27:12.400Z,4.10
2022-12-03T06:33:36.758Z,4.30
2022-12-03T06:39:59.815Z,4.30
2022-12-03T06:46:24.237Z,4.30
2022-12-03T06:52:48.598Z,4.00
2022-12-03T06:59:13.011Z,4.50
2022-12-03T07:05:37.320Z,4.40
2022-12-03T07:12:01.667Z,3.70
2022-12-03T07:18:26.365Z,3.90
2022-12-03T07:24:50.851Z,4.20
2022-12-03T07:31:15.730Z,4.50
2022-12-03T07:37:40.206Z,4.30
2022-12-03T07:44:07.838Z,4.40
2022-12-03T07:50:36.923Z,4.50
2022-12-03T07:57:01.969Z,4.30
2022-12-03T08:03:26.577Z,4.50
2022-12-03T08:09:41.992Z,5.00
2022-12-03T08:16:15.341Z,4.20
2022-12-03T08:22:33.778Z,4.40
2022-12-03T08:28:58.181Z,4.70
2022-12-03T08:35:22.544Z,4.60
2022-12-03T08:41:54.265Z,4.60
2022-12-03T08:48:21.681Z,4.50
2022-12-03T08:54:48.803Z,4.80
2022-12-03T09:01:16.291Z,4.70
2022-12-03T09:07:40.876Z,5.80
2022-12-03T09:14:05.426Z,5.30
2022-12-03T09:20:29.727Z,5.60
2022-12-03T09:26:54.406Z,6.10
2022-12-03T09:33:18.780Z,5.30
2022-12-03T09:39:43.098Z,5.80
2022-12-03T09:46:07.818Z,6.10
2022-12-03T09:52:32.172Z,5.80
2022-12-03T09:58:56.589Z,5.90
2022-12-03T10:05:20.985Z,6.40
2022-12-03T10:11:45.307Z,6.30
2022-12-03T10:18:09.717Z,6.80
2022-12-03T10:24:32.295Z,6.50
2022-12-03T10:30:59.681Z,6.50
2022-12-03T10:37:24.185Z,7.10
2022-12-03T10:44:00.500Z,6.80
2022-12-03T10:50:25.063Z,6.50
2022-12-03T10:56:50.433Z,7.70
2022-12-03T11:03:20.710Z,6.30
2022-12-03T11:09:45.156Z,6.00
2022-12-03T11:16:24.519Z,8.40
2022-12-03T11:23:07.291Z,7.60
2022-12-03T11:29:34.751Z,7.80
2022-12-03T11:36:04.880Z,7.40
2022-12-03T11:42:29.348Z,7.10
2022-12-03T11:48:59.505Z,8.00
2022-12-03T11:55:23.905Z,7.20
2022-12-03T12:01:57.273Z,7.90
2022-12-03T12:08:29.181Z,8.10
2022-12-03T12:14:53.506Z,6.80
2022-12-03T12:21:23.820Z,6.70
2022-12-03T12:27:51.171Z,6.80
2022-12-03T12:34:07.740Z,7.30
2022-12-03T12:40:32.147Z,7.60
2022-12-03T12:46:48.987Z,7.70
2022-12-03T12:53:21.804Z,8.30
2022-12-03T12:59:52.123Z,6.40
2022-12-03T13:06:19.385Z,6.60
2022-12-03T13:12:43.768Z,7.10
2022-12-03T13:19:13.820Z,7.20
2022-12-03T13:32:31.356Z,7.20
2022-12-03T13:38:55.638Z,7.60
2022-12-03T13:45:20.030Z,8.00
2022-12-03T13:51:42.539Z,8.20
2022-12-03T13:58:07.017Z,7.70
2022-12-03T14:04:31.426Z,7.90
2022-12-03T14:11:00.435Z,8.50
2022-12-03T14:17:25.273Z,8.50
2022-12-03T14:23:49.627Z,9.40
2022-12-03T14:30:14.017Z,10.50
2022-12-03T14:36:38.295Z,8.60
2022-12-03T14:43:02.844Z,10.00
2022-12-03T14:49:27.148Z,9.90
2022-12-03T14:55:51.416Z,8.30
2022-12-03T15:02:15.857Z,9.80
2022-12-03T15:08:40.508Z,10.30
2022-12-03T15:15:05.001Z,9.00
2022-12-03T15:21:29.285Z,9.20
2022-12-03T15:26:53.732Z,9.50
2022-12-03T15:31:59.550Z,8.70
2022-12-03T15:37:02.885Z,8.50
2022-12-03T15:42:06.094Z,9.30
2022-12-03T15:47:09.336Z,9.40
2022-12-03T15:52:12.643Z,9.50
2022-12-03T15:57:16.113Z,9.40
2022-12-03T16:02:19.618Z,9.80
2022-12-03T16:07:22.969Z,11.00
2022-12-03T16:12:26.220Z,10.10
2022-12-03T16:17:29.624Z,9.80
2022-12-03T16:22:32.876Z,11.70
2022-12-03T16:27:38.163Z,10.00
2022-12-03T16:32:41.988Z,10.20
2022-12-03T16:37:45.253Z,9.20
2022-12-03T16:42:48.493Z,10.10
2022-12-03T16:47:51.787Z,10.20
2022-12-03T16:52:55.149Z,10.70
2022-12-03T16:57:58.465Z,10.90
2022-12-03T17:03:01.815Z,11.10
2022-12-03T17:08:05.213Z,10.30
2022-12-03T17:13:10.510Z,10.40
2022-12-03T17:18:14.208Z,10.30
2022-12-03T17:23:17.976Z,10.40
2022-12-03T17:28:21.297Z,10.80
2022-12-03T17:33:24.554Z,10.70
2022-12-03T17:38:28.035Z,10.70
2022-12-03T17:43:31.346Z,10.60
2022-12-03T17:48:35.413Z,11.50
2022-12-03T17:53:38.697Z,10.90
2022-12-03T17:58:42.040Z,12.20
2022-12-03T18:03:45.486Z,11.50
2022-12-03T18:08:48.823Z,12.00
2022-12-03T18:13:52.164Z,11.70
2022-12-03T18:18:57.653Z,12.00
2022-12-03T18:24:04.004Z,12.30
2022-12-03T18:29:07.332Z,12.30
2022-12-03T18:34:10.618Z,11.90
2022-12-03T18:39:30.325Z,12.10
2022-12-03T18:44:34.238Z,12.50
2022-12-03T18:49:37.590Z,13.30
2022-12-03T18:54:41.042Z,12.70
2022-12-03T18:59:44.431Z,13.70
2022-12-03T19:04:48.322Z,14.20
2022-12-03T19:09:51.969Z,13.70
2022-12-03T19:14:55.575Z,14.40
2022-12-03T19:19:58.962Z,14.50
2022-12-03T19:25:03.238Z,13.60
2022-12-03T19:30:07.522Z,13.80
2022-12-03T19:35:11.601Z,15.40
2022-12-03T19:40:15.788Z,14.90
2022-12-03T19:45:19.204Z,17.10
2022-12-03T19:50:23.705Z,16.10
2022-12-03T19:55:27.318Z,15.00
2022-12-03T20:00:30.681Z,15.20
2022-12-03T20:05:38.424Z,13.50
2022-12-03T20:10:41.897Z,14.30
2022-12-03T20:15:45.233Z,13.80
2022-12-03T20:20:48.564Z,13.20
2022-12-03T20:25:51.968Z,13.30
2022-12-03T20:31:05.089Z,13.90
2022-12-03T20:36:09.832Z,12.90
2022-12-03T20:41:15.890Z,13.70
2022-12-03T20:46:26.010Z,12.30
2022-12-03T20:51:31.115Z,12.60
2022-12-03T20:56:39.490Z,12.10
2022-12-03T21:01:44.316Z,12.20
2022-12-03T21:06:47.793Z,12.30
2022-12-03T21:11:51.251Z,12.50
2022-12-03T21:17:11.957Z,12.80
2022-12-03T21:22:15.445Z,12.80
2022-12-03T21:27:21.906Z,12.20
2022-12-03T21:32:25.568Z,11.80
2022-12-03T21:37:28.970Z,12.40
2022-12-03T21:42:35.629Z,11.70
2022-12-03T21:47:41.282Z,13.00
2022-12-03T21:52:44.762Z,12.70
2022-12-03T21:57:48.197Z,11.90
2022-12-03T22:02:52.668Z,12.40
2022-12-03T22:07:56.309Z,12.60
2022-12-03T22:13:00.363Z,12.00
2022-12-03T22:18:04.505Z,11.90
2022-12-03T22:23:07.935Z,11.60
2022-12-03T22:28:11.279Z,12.30
2022-12-03T22:33:14.611Z,12.10
2022-12-03T22:38:17.977Z,12.20
2022-12-03T22:43:22.277Z,11.10
2022-12-03T22:48:25.666Z,11.70
2022-12-03T22:53:29.070Z,11.10
2022-12-03T22:58:32.936Z,11.30
2022-12-03T23:03:37.511Z,11.50
2022-12-03T23:08:40.996Z,10.40
2022-12-03T23:13:44.860Z,10.80
2022-12-03T23:18:48.819Z,10.80
2022-12-03T23:23:52.282Z,10.00
2022-12-03T23:28:56.388Z,10.70
2022-12-03T23:34:00.449Z,9.90
2022-12-03T23:39:03.977Z,10.00
2022-12-03T23:44:07.354Z,9.30
2022-12-03T23:49:10.731Z,10.40
2022-12-03T23:54:14.241Z,9.40
2022-12-03T23:59:17.593Z,9.60
